sensor_id;sensor_type;location;lat;lon;timestamp;P1;durP1;ratioP1;P2;durP2;ratioP2
4839;SDS011;2434;48.486;7.964;2024-03-08T00:00:17;38.53;;;20.30;;
4839;SDS011;2434;48.486;7.964;2024-03-08T00:02:47;31.90;;;20.17;;
4839;SDS011;2434;48.486;7.964;2024-03-08T00:05:17;35.77;;;21.30;;
4839;SDS011;2434;48.486;7.964;2024-03-08T00:07:46;38.63;;;22.97;;
4839;SDS011;2434;48.486;7.964;2024-03-08T00:10:14;40.40;;;20.60;;
4839;SDS011;2434;48.486;7.964;2024-03-08T00:12:43;38.10;;;21.50;;
4839;SDS011;2434;48.486;7.964;2024-03-08T00:15:13;34.33;;;20.50;;
4839;SDS011;2434;48.486;7.964;2024-03-08T00:17:45;32.73;;;19.23;;
4839;SDS011;2434;48.486;7.964;2024-03-08T00:20:15;33.27;;;19.60;;
4839;SDS011;2434;48.486;7.964;2024-03-08T00:22:45;31.30;;;19.13;;
4839;SDS011;2434;48.486;7.964;2024-03-08T00:25:14;34.47;;;20.33;;
4839;SDS011;2434;48.486;7.964;2024-03-08T00:27:42;30.50;;;17.83;;
4839;SDS011;2434;48.486;7.964;2024-03-08T00:30:11;36.80;;;20.70;;
4839;SDS011;2434;48.486;7.964;2024-03-08T00:32:41;32.47;;;18.93;;
4839;SDS011;2434;48.486;7.964;2024-03-08T00:35:11;34.50;;;20.70;;
4839;SDS011;2434;48.486;7.964;2024-03-08T00:37:39;28.70;;;18.23;;
4839;SDS011;2434;48.486;7.964;2024-03-08T00:40:08;39.97;;;20.30;;
4839;SDS011;2434;48.486;7.964;2024-03-08T00:42:37;33.50;;;19.63;;
4839;SDS011;2434;48.486;7.964;2024-03-08T00:45:07;30.73;;;18.50;;
4839;SDS011;2434;48.486;7.964;2024-03-08T00:47:36;29.50;;;18.60;;
4839;SDS011;2434;48.486;7.964;2024-03-08T00:50:05;33.50;;;19.30;;
4839;SDS011;2434;48.486;7.964;2024-03-08T00:52:36;31.60;;;18.93;;
4839;SDS011;2434;48.486;7.964;2024-03-08T00:55:04;37.80;;;20.17;;
4839;SDS011;2434;48.486;7.964;2024-03-08T00:57:34;32.97;;;18.73;;
4839;SDS011;2434;48.486;7.964;2024-03-08T01:00:02;32.63;;;18.53;;
4839;SDS011;2434;48.486;7.964;2024-03-08T01:02:32;32.50;;;18.30;;
4839;SDS011;2434;48.486;7.964;2024-03-08T01:05:02;33.37;;;19.77;;
4839;SDS011;2434;48.486;7.964;2024-03-08T01:07:32;39.17;;;19.30;;
4839;SDS011;2434;48.486;7.964;2024-03-08T01:10:02;36.47;;;21.47;;
4839;SDS011;2434;48.486;7.964;2024-03-08T01:12:30;43.83;;;23.63;;
4839;SDS011;2434;48.486;7.964;2024-03-08T01:14:58;53.93;;;27.90;;
4839;SDS011;2434;48.486;7.964;2024-03-08T01:17:26;41.33;;;23.27;;
4839;SDS011;2434;48.486;7.964;2024-03-08T01:19:54;47.93;;;24.63;;
4839;SDS011;2434;48.486;7.964;2024-03-08T01:22:22;42.43;;;23.10;;
4839;SDS011;2434;48.486;7.964;2024-03-08T01:24:50;43.50;;;21.73;;
4839;SDS011;2434;48.486;7.964;2024-03-08T01:27:20;37.00;;;22.13;;
4839;SDS011;2434;48.486;7.964;2024-03-08T01:29:48;39.70;;;21.50;;
4839;SDS011;2434;48.486;7.964;2024-03-08T01:32:17;34.73;;;20.10;;
4839;SDS011;2434;48.486;7.964;2024-03-08T01:34:45;33.60;;;20.00;;
4839;SDS011;2434;48.486;7.964;2024-03-08T01:37:13;35.20;;;19.60;;
4839;SDS011;2434;48.486;7.964;2024-03-08T01:39:41;44.10;;;23.30;;
4839;SDS011;2434;48.486;7.964;2024-03-08T01:42:09;47.23;;;21.97;;
4839;SDS011;2434;48.486;7.964;2024-03-08T01:44:40;37.03;;;21.57;;
4839;SDS011;2434;48.486;7.964;2024-03-08T01:47:10;44.67;;;24.67;;
4839;SDS011;2434;48.486;7.964;2024-03-08T01:49:38;50.97;;;25.77;;
4839;SDS011;2434;48.486;7.964;2024-03-08T01:52:07;46.60;;;24.27;;
4839;SDS011;2434;48.486;7.964;2024-03-08T01:54:35;48.73;;;25.13;;
4839;SDS011;2434;48.486;7.964;2024-03-08T01:57:03;46.43;;;24.27;;
4839;SDS011;2434;48.486;7.964;2024-03-08T01:59:32;47.80;;;24.30;;
4839;SDS011;2434;48.486;7.964;2024-03-08T02:02:01;44.27;;;22.80;;
4839;SDS011;2434;48.486;7.964;2024-03-08T02:04:30;41.83;;;23.40;;
4839;SDS011;2434;48.486;7.964;2024-03-08T02:06:58;38.50;;;23.10;;
4839;SDS011;2434;48.486;7.964;2024-03-08T02:09:26;42.13;;;22.60;;
4839;SDS011;2434;48.486;7.964;2024-03-08T02:11:55;38.50;;;22.87;;
4839;SDS011;2434;48.486;7.964;2024-03-08T02:14:29;39.67;;;23.00;;
4839;SDS011;2434;48.486;7.964;2024-03-08T02:17:00;39.53;;;18.90;;
4839;SDS011;2434;48.486;7.964;2024-03-08T02:19:31;29.10;;;18.57;;
4839;SDS011;2434;48.486;7.964;2024-03-08T02:22:03;32.60;;;20.10;;
4839;SDS011;2434;48.486;7.964;2024-03-08T02:24:31;36.77;;;18.47;;
4839;SDS011;2434;48.486;7.964;2024-03-08T02:27:00;33.70;;;19.00;;
4839;SDS011;2434;48.486;7.964;2024-03-08T02:29:28;35.83;;;19.80;;
4839;SDS011;2434;48.486;7.964;2024-03-08T02:31:57;32.37;;;19.20;;
4839;SDS011;2434;48.486;7.964;2024-03-08T02:34:25;35.07;;;18.53;;
4839;SDS011;2434;48.486;7.964;2024-03-08T02:36:53;32.83;;;19.17;;
4839;SDS011;2434;48.486;7.964;2024-03-08T02:39:24;32.97;;;19.20;;
4839;SDS011;2434;48.486;7.964;2024-03-08T02:41:54;34.17;;;19.17;;
4839;SDS011;2434;48.486;7.964;2024-03-08T02:44:22;32.20;;;19.33;;
4839;SDS011;2434;48.486;7.964;2024-03-08T02:46:50;34.43;;;18.57;;
4839;SDS011;2434;48.486;7.964;2024-03-08T02:49:21;27.67;;;16.33;;
4839;SDS011;2434;48.486;7.964;2024-03-08T02:51:49;32.77;;;17.17;;
4839;SDS011;2434;48.486;7.964;2024-03-08T02:54:17;28.27;;;17.30;;
4839;SDS011;2434;48.486;7.964;2024-03-08T02:56:47;30.60;;;19.13;;
4839;SDS011;2434;48.486;7.964;2024-03-08T02:59:16;29.70;;;17.70;;
4839;SDS011;2434;48.486;7.964;2024-03-08T03:01:45;28.07;;;17.43;;
4839;SDS011;2434;48.486;7.964;2024-03-08T03:04:13;34.60;;;19.40;;
4839;SDS011;2434;48.486;7.964;2024-03-08T03:06:41;30.20;;;18.60;;
4839;SDS011;2434;48.486;7.964;2024-03-08T03:09:09;27.03;;;16.00;;
4839;SDS011;2434;48.486;7.964;2024-03-08T03:11:37;28.50;;;16.27;;
4839;SDS011;2434;48.486;7.964;2024-03-08T03:14:07;25.80;;;15.67;;
4839;SDS011;2434;48.486;7.964;2024-03-08T03:16:35;23.50;;;15.07;;
4839;SDS011;2434;48.486;7.964;2024-03-08T03:19:03;30.80;;;16.60;;
4839;SDS011;2434;48.486;7.964;2024-03-08T03:21:32;22.23;;;14.77;;
4839;SDS011;2434;48.486;7.964;2024-03-08T03:24:02;30.17;;;16.43;;
4839;SDS011;2434;48.486;7.964;2024-03-08T03:26:30;27.77;;;16.10;;
4839;SDS011;2434;48.486;7.964;2024-03-08T03:28:58;26.67;;;14.90;;
4839;SDS011;2434;48.486;7.964;2024-03-08T03:31:31;28.17;;;15.53;;
4839;SDS011;2434;48.486;7.964;2024-03-08T03:33:59;25.10;;;16.00;;
4839;SDS011;2434;48.486;7.964;2024-03-08T03:36:29;27.90;;;14.40;;
4839;SDS011;2434;48.486;7.964;2024-03-08T03:38:57;28.07;;;16.03;;
4839;SDS011;2434;48.486;7.964;2024-03-08T03:41:33;26.27;;;15.90;;
4839;SDS011;2434;48.486;7.964;2024-03-08T03:44:01;23.23;;;14.57;;
4839;SDS011;2434;48.486;7.964;2024-03-08T03:46:31;25.37;;;14.73;;
4839;SDS011;2434;48.486;7.964;2024-03-08T03:48:59;23.10;;;13.80;;
4839;SDS011;2434;48.486;7.964;2024-03-08T03:51:27;28.80;;;16.90;;
4839;SDS011;2434;48.486;7.964;2024-03-08T03:53:55;26.10;;;15.80;;
4839;SDS011;2434;48.486;7.964;2024-03-08T03:56:27;23.93;;;14.83;;
4839;SDS011;2434;48.486;7.964;2024-03-08T03:58:55;23.80;;;14.20;;
4839;SDS011;2434;48.486;7.964;2024-03-08T04:01:23;26.50;;;15.20;;
4839;SDS011;2434;48.486;7.964;2024-03-08T04:03:52;26.60;;;14.53;;
4839;SDS011;2434;48.486;7.964;2024-03-08T04:06:21;24.90;;;14.70;;
4839;SDS011;2434;48.486;7.964;2024-03-08T04:08:50;27.37;;;16.30;;
4839;SDS011;2434;48.486;7.964;2024-03-08T04:11:18;27.43;;;17.37;;
4839;SDS011;2434;48.486;7.964;2024-03-08T04:13:46;30.80;;;17.07;;
4839;SDS011;2434;48.486;7.964;2024-03-08T04:16:14;27.97;;;16.20;;
4839;SDS011;2434;48.486;7.964;2024-03-08T04:18:42;28.10;;;15.60;;
4839;SDS011;2434;48.486;7.964;2024-03-08T04:21:12;27.93;;;16.43;;
4839;SDS011;2434;48.486;7.964;2024-03-08T04:23:40;26.80;;;16.90;;
4839;SDS011;2434;48.486;7.964;2024-03-08T04:26:11;24.90;;;15.00;;
4839;SDS011;2434;48.486;7.964;2024-03-08T04:28:43;27.93;;;14.27;;
4839;SDS011;2434;48.486;7.964;2024-03-08T04:31:11;25.77;;;14.30;;
4839;SDS011;2434;48.486;7.964;2024-03-08T04:33:39;22.03;;;12.80;;
4839;SDS011;2434;48.486;7.964;2024-03-08T04:36:07;25.67;;;14.60;;
4839;SDS011;2434;48.486;7.964;2024-03-08T04:38:41;27.03;;;16.27;;
4839;SDS011;2434;48.486;7.964;2024-03-08T04:41:09;27.77;;;16.03;;
4839;SDS011;2434;48.486;7.964;2024-03-08T04:43:37;21.57;;;13.10;;
4839;SDS011;2434;48.486;7.964;2024-03-08T04:46:06;23.10;;;14.37;;
4839;SDS011;2434;48.486;7.964;2024-03-08T04:48:34;24.77;;;13.60;;
4839;SDS011;2434;48.486;7.964;2024-03-08T04:51:03;23.60;;;13.80;;
4839;SDS011;2434;48.486;7.964;2024-03-08T04:53:32;25.27;;;13.57;;
4839;SDS011;2434;48.486;7.964;2024-03-08T04:56:02;21.20;;;13.73;;
4839;SDS011;2434;48.486;7.964;2024-03-08T04:58:32;25.37;;;14.50;;
4839;SDS011;2434;48.486;7.964;2024-03-08T05:01:00;27.07;;;14.80;;
4839;SDS011;2434;48.486;7.964;2024-03-08T05:03:29;27.33;;;15.50;;
4839;SDS011;2434;48.486;7.964;2024-03-08T05:05:56;25.07;;;14.90;;
4839;SDS011;2434;48.486;7.964;2024-03-08T05:08:25;30.50;;;17.20;;
4839;SDS011;2434;48.486;7.964;2024-03-08T05:10:53;27.27;;;16.50;;
4839;SDS011;2434;48.486;7.964;2024-03-08T05:13:23;31.03;;;15.53;;
4839;SDS011;2434;48.486;7.964;2024-03-08T05:15:51;27.07;;;16.80;;
4839;SDS011;2434;48.486;7.964;2024-03-08T05:18:19;30.83;;;16.60;;
4839;SDS011;2434;48.486;7.964;2024-03-08T05:20:48;24.67;;;15.27;;
4839;SDS011;2434;48.486;7.964;2024-03-08T05:23:17;30.57;;;16.87;;
4839;SDS011;2434;48.486;7.964;2024-03-08T05:25:46;26.87;;;15.40;;
4839;SDS011;2434;48.486;7.964;2024-03-08T05:28:14;24.20;;;14.57;;
4839;SDS011;2434;48.486;7.964;2024-03-08T05:30:44;21.60;;;13.43;;
4839;SDS011;2434;48.486;7.964;2024-03-08T05:33:12;24.33;;;14.07;;
4839;SDS011;2434;48.486;7.964;2024-03-08T05:35:41;22.70;;;14.47;;
4839;SDS011;2434;48.486;7.964;2024-03-08T05:38:09;24.73;;;14.17;;
4839;SDS011;2434;48.486;7.964;2024-03-08T05:40:39;24.23;;;14.17;;
4839;SDS011;2434;48.486;7.964;2024-03-08T05:43:09;26.00;;;14.20;;
4839;SDS011;2434;48.486;7.964;2024-03-08T05:45:38;21.60;;;13.93;;
4839;SDS011;2434;48.486;7.964;2024-03-08T05:48:07;24.70;;;14.40;;
4839;SDS011;2434;48.486;7.964;2024-03-08T05:50:36;23.23;;;13.20;;
4839;SDS011;2434;48.486;7.964;2024-03-08T05:53:04;28.07;;;13.53;;
4839;SDS011;2434;48.486;7.964;2024-03-08T05:55:33;24.53;;;14.27;;
4839;SDS011;2434;48.486;7.964;2024-03-08T05:58:02;24.43;;;14.87;;
4839;SDS011;2434;48.486;7.964;2024-03-08T06:00:30;20.43;;;13.40;;
4839;SDS011;2434;48.486;7.964;2024-03-08T06:02:58;25.70;;;13.97;;
4839;SDS011;2434;48.486;7.964;2024-03-08T06:05:28;23.00;;;13.03;;
4839;SDS011;2434;48.486;7.964;2024-03-08T06:07:56;27.17;;;14.50;;
4839;SDS011;2434;48.486;7.964;2024-03-08T06:10:25;23.30;;;14.23;;
4839;SDS011;2434;48.486;7.964;2024-03-08T06:12:53;25.57;;;12.97;;
4839;SDS011;2434;48.486;7.964;2024-03-08T06:15:21;25.00;;;14.30;;
4839;SDS011;2434;48.486;7.964;2024-03-08T06:17:49;27.07;;;15.10;;
4839;SDS011;2434;48.486;7.964;2024-03-08T06:20:19;23.90;;;13.33;;
4839;SDS011;2434;48.486;7.964;2024-03-08T06:22:54;24.23;;;13.80;;
4839;SDS011;2434;48.486;7.964;2024-03-08T06:25:22;23.17;;;13.20;;
4839;SDS011;2434;48.486;7.964;2024-03-08T06:27:50;25.80;;;14.90;;
4839;SDS011;2434;48.486;7.964;2024-03-08T06:30:19;22.13;;;12.40;;
4839;SDS011;2434;48.486;7.964;2024-03-08T06:32:47;22.47;;;13.17;;
4839;SDS011;2434;48.486;7.964;2024-03-08T06:35:16;22.60;;;13.73;;
4839;SDS011;2434;48.486;7.964;2024-03-08T06:37:46;27.50;;;17.77;;
4839;SDS011;2434;48.486;7.964;2024-03-08T06:40:16;29.20;;;18.93;;
4839;SDS011;2434;48.486;7.964;2024-03-08T06:42:44;34.00;;;19.57;;
4839;SDS011;2434;48.486;7.964;2024-03-08T06:45:13;35.17;;;21.40;;
4839;SDS011;2434;48.486;7.964;2024-03-08T06:47:45;30.73;;;19.53;;
4839;SDS011;2434;48.486;7.964;2024-03-08T06:50:14;33.97;;;19.50;;
4839;SDS011;2434;48.486;7.964;2024-03-08T06:52:42;27.80;;;18.00;;
4839;SDS011;2434;48.486;7.964;2024-03-08T06:55:12;28.00;;;16.90;;
4839;SDS011;2434;48.486;7.964;2024-03-08T06:57:42;25.10;;;16.00;;
4839;SDS011;2434;48.486;7.964;2024-03-08T07:00:10;32.83;;;18.53;;
4839;SDS011;2434;48.486;7.964;2024-03-08T07:02:45;25.03;;;14.80;;
4839;SDS011;2434;48.486;7.964;2024-03-08T07:05:15;26.10;;;14.50;;
4839;SDS011;2434;48.486;7.964;2024-03-08T07:07:43;26.53;;;14.27;;
4839;SDS011;2434;48.486;7.964;2024-03-08T07:10:11;24.50;;;14.27;;
4839;SDS011;2434;48.486;7.964;2024-03-08T07:12:43;22.47;;;13.43;;
4839;SDS011;2434;48.486;7.964;2024-03-08T07:15:11;204.93;;;63.20;;
4839;SDS011;2434;48.486;7.964;2024-03-08T07:17:41;287.57;;;77.47;;
4839;SDS011;2434;48.486;7.964;2024-03-08T07:20:11;124.47;;;43.47;;
4839;SDS011;2434;48.486;7.964;2024-03-08T07:22:40;84.13;;;34.03;;
4839;SDS011;2434;48.486;7.964;2024-03-08T07:25:13;51.90;;;24.93;;
4839;SDS011;2434;48.486;7.964;2024-03-08T07:27:50;76.10;;;32.23;;
4839;SDS011;2434;48.486;7.964;2024-03-08T07:30:19;40.90;;;20.30;;
4839;SDS011;2434;48.486;7.964;2024-03-08T07:33:05;28.47;;;15.43;;
4839;SDS011;2434;48.486;7.964;2024-03-08T07:35:34;26.87;;;16.23;;
4839;SDS011;2434;48.486;7.964;2024-03-08T07:38:04;26.73;;;17.17;;
4839;SDS011;2434;48.486;7.964;2024-03-08T07:40:32;33.70;;;18.80;;
4839;SDS011;2434;48.486;7.964;2024-03-08T07:43:04;35.20;;;19.80;;
4839;SDS011;2434;48.486;7.964;2024-03-08T07:45:32;30.63;;;19.33;;
4839;SDS011;2434;48.486;7.964;2024-03-08T07:48:00;32.13;;;18.40;;
4839;SDS011;2434;48.486;7.964;2024-03-08T07:50:29;30.43;;;17.67;;
4839;SDS011;2434;48.486;7.964;2024-03-08T07:52:59;27.97;;;17.27;;
4839;SDS011;2434;48.486;7.964;2024-03-08T07:55:29;28.97;;;16.60;;
4839;SDS011;2434;48.486;7.964;2024-03-08T07:57:57;35.80;;;19.20;;
4839;SDS011;2434;48.486;7.964;2024-03-08T08:00:27;29.70;;;17.70;;
4839;SDS011;2434;48.486;7.964;2024-03-08T08:02:56;29.70;;;18.53;;
4839;SDS011;2434;48.486;7.964;2024-03-08T08:05:25;42.17;;;20.27;;
4839;SDS011;2434;48.486;7.964;2024-03-08T08:07:53;38.50;;;20.40;;
4839;SDS011;2434;48.486;7.964;2024-03-08T08:10:22;33.77;;;19.80;;
4839;SDS011;2434;48.486;7.964;2024-03-08T08:12:52;43.10;;;20.83;;
4839;SDS011;2434;48.486;7.964;2024-03-08T08:15:20;37.63;;;21.73;;
4839;SDS011;2434;48.486;7.964;2024-03-08T08:17:50;35.83;;;21.30;;
4839;SDS011;2434;48.486;7.964;2024-03-08T08:20:19;42.67;;;23.00;;
4839;SDS011;2434;48.486;7.964;2024-03-08T08:22:48;37.50;;;21.53;;
4839;SDS011;2434;48.486;7.964;2024-03-08T08:25:16;36.67;;;22.13;;
4839;SDS011;2434;48.486;7.964;2024-03-08T08:27:47;38.10;;;22.20;;
4839;SDS011;2434;48.486;7.964;2024-03-08T08:30:15;41.70;;;24.17;;
4839;SDS011;2434;48.486;7.964;2024-03-08T08:32:43;45.93;;;25.20;;
4839;SDS011;2434;48.486;7.964;2024-03-08T08:35:14;40.70;;;24.47;;
4839;SDS011;2434;48.486;7.964;2024-03-08T08:37:45;36.90;;;22.00;;
4839;SDS011;2434;48.486;7.964;2024-03-08T08:40:13;41.63;;;24.10;;
4839;SDS011;2434;48.486;7.964;2024-03-08T08:42:44;37.07;;;23.60;;
4839;SDS011;2434;48.486;7.964;2024-03-08T08:45:16;36.83;;;22.93;;
4839;SDS011;2434;48.486;7.964;2024-03-08T08:47:51;41.57;;;23.00;;
4839;SDS011;2434;48.486;7.964;2024-03-08T08:50:22;41.63;;;23.43;;
4839;SDS011;2434;48.486;7.964;2024-03-08T08:52:51;40.80;;;23.30;;
4839;SDS011;2434;48.486;7.964;2024-03-08T08:55:20;40.40;;;22.63;;
4839;SDS011;2434;48.486;7.964;2024-03-08T08:57:51;44.37;;;25.77;;
4839;SDS011;2434;48.486;7.964;2024-03-08T09:00:19;37.23;;;21.33;;
4839;SDS011;2434;48.486;7.964;2024-03-08T09:02:50;39.27;;;21.93;;
4839;SDS011;2434;48.486;7.964;2024-03-08T09:05:22;37.47;;;22.30;;
4839;SDS011;2434;48.486;7.964;2024-03-08T09:07:50;43.37;;;23.40;;
4839;SDS011;2434;48.486;7.964;2024-03-08T09:10:19;39.63;;;23.20;;
4839;SDS011;2434;48.486;7.964;2024-03-08T09:12:48;33.87;;;21.87;;
4839;SDS011;2434;48.486;7.964;2024-03-08T09:15:16;43.07;;;20.90;;
4839;SDS011;2434;48.486;7.964;2024-03-08T09:17:46;38.20;;;23.00;;
4839;SDS011;2434;48.486;7.964;2024-03-08T09:20:15;40.83;;;23.70;;
4839;SDS011;2434;48.486;7.964;2024-03-08T09:22:45;39.20;;;22.53;;
4839;SDS011;2434;48.486;7.964;2024-03-08T09:25:13;36.17;;;22.60;;
4839;SDS011;2434;48.486;7.964;2024-03-08T09:27:41;36.10;;;20.93;;
4839;SDS011;2434;48.486;7.964;2024-03-08T09:30:09;33.87;;;20.13;;
4839;SDS011;2434;48.486;7.964;2024-03-08T09:32:39;40.70;;;23.50;;
4839;SDS011;2434;48.486;7.964;2024-03-08T09:35:08;36.53;;;21.43;;
4839;SDS011;2434;48.486;7.964;2024-03-08T09:37:37;36.43;;;21.40;;
4839;SDS011;2434;48.486;7.964;2024-03-08T09:40:07;35.37;;;22.00;;
4839;SDS011;2434;48.486;7.964;2024-03-08T09:42:37;39.67;;;22.57;;
4839;SDS011;2434;48.486;7.964;2024-03-08T09:45:06;36.17;;;22.97;;
4839;SDS011;2434;48.486;7.964;2024-03-08T09:47:38;40.77;;;22.60;;
4839;SDS011;2434;48.486;7.964;2024-03-08T09:50:08;37.77;;;23.47;;
4839;SDS011;2434;48.486;7.964;2024-03-08T09:52:38;40.90;;;23.53;;
4839;SDS011;2434;48.486;7.964;2024-03-08T09:55:09;34.23;;;22.40;;
4839;SDS011;2434;48.486;7.964;2024-03-08T09:57:38;39.50;;;24.40;;
4839;SDS011;2434;48.486;7.964;2024-03-08T10:00:10;39.47;;;22.60;;
4839;SDS011;2434;48.486;7.964;2024-03-08T10:02:50;39.43;;;23.60;;
4839;SDS011;2434;48.486;7.964;2024-03-08T10:05:20;35.63;;;21.97;;
4839;SDS011;2434;48.486;7.964;2024-03-08T10:07:49;33.70;;;20.97;;
4839;SDS011;2434;48.486;7.964;2024-03-08T10:10:19;38.40;;;23.80;;
4839;SDS011;2434;48.486;7.964;2024-03-08T10:12:48;38.60;;;23.53;;
4839;SDS011;2434;48.486;7.964;2024-03-08T10:15:16;35.07;;;22.97;;
4839;SDS011;2434;48.486;7.964;2024-03-08T10:17:44;39.43;;;25.47;;
4839;SDS011;2434;48.486;7.964;2024-03-08T10:20:13;37.53;;;22.50;;
4839;SDS011;2434;48.486;7.964;2024-03-08T10:22:42;35.60;;;22.13;;
4839;SDS011;2434;48.486;7.964;2024-03-08T10:25:25;32.37;;;20.33;;
4839;SDS011;2434;48.486;7.964;2024-03-08T10:27:53;33.30;;;19.73;;
4839;SDS011;2434;48.486;7.964;2024-03-08T10:30:21;27.90;;;18.90;;
4839;SDS011;2434;48.486;7.964;2024-03-08T10:32:49;33.00;;;19.20;;
4839;SDS011;2434;48.486;7.964;2024-03-08T10:35:18;30.13;;;18.03;;
4839;SDS011;2434;48.486;7.964;2024-03-08T10:37:48;35.83;;;19.67;;
4839;SDS011;2434;48.486;7.964;2024-03-08T10:40:26;26.80;;;17.90;;
4839;SDS011;2434;48.486;7.964;2024-03-08T10:42:55;29.30;;;19.53;;
4839;SDS011;2434;48.486;7.964;2024-03-08T10:45:33;32.57;;;19.27;;
4839;SDS011;2434;48.486;7.964;2024-03-08T10:48:04;32.13;;;19.53;;
4839;SDS011;2434;48.486;7.964;2024-03-08T10:50:42;32.13;;;19.13;;
4839;SDS011;2434;48.486;7.964;2024-03-08T10:53:12;32.10;;;20.27;;
4839;SDS011;2434;48.486;7.964;2024-03-08T10:55:42;28.73;;;18.40;;
4839;SDS011;2434;48.486;7.964;2024-03-08T10:58:12;29.73;;;18.40;;
4839;SDS011;2434;48.486;7.964;2024-03-08T11:00:40;28.47;;;18.67;;
4839;SDS011;2434;48.486;7.964;2024-03-08T11:03:11;29.73;;;18.70;;
4839;SDS011;2434;48.486;7.964;2024-03-08T11:06:16;30.80;;;19.27;;
4839;SDS011;2434;48.486;7.964;2024-03-08T11:08:49;30.13;;;20.00;;
4839;SDS011;2434;48.486;7.964;2024-03-08T11:11:24;30.40;;;18.00;;
4839;SDS011;2434;48.486;7.964;2024-03-08T11:14:00;26.97;;;17.60;;
4839;SDS011;2434;48.486;7.964;2024-03-08T11:16:39;30.20;;;19.00;;
4839;SDS011;2434;48.486;7.964;2024-03-08T11:19:25;26.90;;;17.97;;
4839;SDS011;2434;48.486;7.964;2024-03-08T11:21:58;27.77;;;17.80;;
4839;SDS011;2434;48.486;7.964;2024-03-08T11:24:27;29.37;;;18.00;;
4839;SDS011;2434;48.486;7.964;2024-03-08T11:26:57;27.67;;;18.27;;
4839;SDS011;2434;48.486;7.964;2024-03-08T11:29:33;32.43;;;19.30;;
4839;SDS011;2434;48.486;7.964;2024-03-08T11:32:05;31.13;;;18.57;;
4839;SDS011;2434;48.486;7.964;2024-03-08T11:34:37;29.70;;;19.07;;
4839;SDS011;2434;48.486;7.964;2024-03-08T11:37:05;29.10;;;17.73;;
4839;SDS011;2434;48.486;7.964;2024-03-08T11:39:39;26.57;;;18.10;;
4839;SDS011;2434;48.486;7.964;2024-03-08T11:42:08;28.53;;;18.27;;
4839;SDS011;2434;48.486;7.964;2024-03-08T11:44:37;30.07;;;18.87;;
4839;SDS011;2434;48.486;7.964;2024-03-08T11:47:09;25.33;;;17.40;;
4839;SDS011;2434;48.486;7.964;2024-03-08T11:49:38;26.40;;;17.63;;
4839;SDS011;2434;48.486;7.964;2024-03-08T11:52:10;30.60;;;18.93;;
4839;SDS011;2434;48.486;7.964;2024-03-08T11:54:40;28.20;;;18.40;;
4839;SDS011;2434;48.486;7.964;2024-03-08T11:57:09;25.63;;;16.23;;
4839;SDS011;2434;48.486;7.964;2024-03-08T11:59:38;27.70;;;18.20;;
4839;SDS011;2434;48.486;7.964;2024-03-08T12:02:06;26.50;;;17.80;;
4839;SDS011;2434;48.486;7.964;2024-03-08T12:04:36;29.07;;;16.30;;
4839;SDS011;2434;48.486;7.964;2024-03-08T12:07:04;26.77;;;17.27;;
4839;SDS011;2434;48.486;7.964;2024-03-08T12:09:38;28.30;;;17.03;;
4839;SDS011;2434;48.486;7.964;2024-03-08T12:12:07;26.30;;;17.77;;
4839;SDS011;2434;48.486;7.964;2024-03-08T12:14:36;27.70;;;18.33;;
4839;SDS011;2434;48.486;7.964;2024-03-08T12:17:05;30.83;;;18.13;;
4839;SDS011;2434;48.486;7.964;2024-03-08T12:19:33;29.10;;;17.57;;
4839;SDS011;2434;48.486;7.964;2024-03-08T12:22:07;29.53;;;18.47;;
4839;SDS011;2434;48.486;7.964;2024-03-08T12:24:36;26.33;;;17.93;;
4839;SDS011;2434;48.486;7.964;2024-03-08T12:27:17;26.30;;;17.37;;
4839;SDS011;2434;48.486;7.964;2024-03-08T12:29:47;27.80;;;17.83;;
4839;SDS011;2434;48.486;7.964;2024-03-08T12:32:15;27.87;;;19.27;;
4839;SDS011;2434;48.486;7.964;2024-03-08T12:34:43;33.03;;;19.30;;
4839;SDS011;2434;48.486;7.964;2024-03-08T12:37:20;27.80;;;18.93;;
4839;SDS011;2434;48.486;7.964;2024-03-08T12:39:50;27.10;;;16.80;;
4839;SDS011;2434;48.486;7.964;2024-03-08T12:42:18;25.40;;;16.90;;
4839;SDS011;2434;48.486;7.964;2024-03-08T12:44:48;25.97;;;16.43;;
4839;SDS011;2434;48.486;7.964;2024-03-08T12:47:16;25.13;;;17.43;;
4839;SDS011;2434;48.486;7.964;2024-03-08T12:49:44;26.03;;;16.97;;
4839;SDS011;2434;48.486;7.964;2024-03-08T12:52:13;25.23;;;17.23;;
4839;SDS011;2434;48.486;7.964;2024-03-08T12:54:44;26.50;;;17.33;;
4839;SDS011;2434;48.486;7.964;2024-03-08T12:57:14;27.97;;;17.77;;
4839;SDS011;2434;48.486;7.964;2024-03-08T12:59:42;23.00;;;16.10;;
4839;SDS011;2434;48.486;7.964;2024-03-08T13:02:12;24.10;;;16.97;;
4839;SDS011;2434;48.486;7.964;2024-03-08T13:04:42;26.57;;;16.30;;
4839;SDS011;2434;48.486;7.964;2024-03-08T13:07:10;25.43;;;17.90;;
4839;SDS011;2434;48.486;7.964;2024-03-08T13:09:43;26.43;;;16.70;;
4839;SDS011;2434;48.486;7.964;2024-03-08T13:12:11;26.27;;;18.00;;
4839;SDS011;2434;48.486;7.964;2024-03-08T13:14:40;26.87;;;17.03;;
4839;SDS011;2434;48.486;7.964;2024-03-08T13:17:08;26.60;;;16.60;;
4839;SDS011;2434;48.486;7.964;2024-03-08T13:19:40;27.83;;;17.73;;
4839;SDS011;2434;48.486;7.964;2024-03-08T13:22:08;29.07;;;15.93;;
4839;SDS011;2434;48.486;7.964;2024-03-08T13:24:39;30.43;;;17.77;;
4839;SDS011;2434;48.486;7.964;2024-03-08T13:27:08;27.77;;;17.43;;
4839;SDS011;2434;48.486;7.964;2024-03-08T13:29:46;24.70;;;15.03;;
4839;SDS011;2434;48.486;7.964;2024-03-08T13:32:15;26.47;;;17.33;;
4839;SDS011;2434;48.486;7.964;2024-03-08T13:34:48;23.70;;;16.80;;
4839;SDS011;2434;48.486;7.964;2024-03-08T13:37:18;29.63;;;18.50;;
4839;SDS011;2434;48.486;7.964;2024-03-08T13:39:46;26.30;;;17.00;;
4839;SDS011;2434;48.486;7.964;2024-03-08T13:42:14;27.63;;;17.80;;
4839;SDS011;2434;48.486;7.964;2024-03-08T13:44:44;26.93;;;17.27;;
4839;SDS011;2434;48.486;7.964;2024-03-08T13:47:13;27.40;;;17.80;;
4839;SDS011;2434;48.486;7.964;2024-03-08T13:49:41;29.20;;;17.90;;
4839;SDS011;2434;48.486;7.964;2024-03-08T13:52:11;29.63;;;18.30;;
4839;SDS011;2434;48.486;7.964;2024-03-08T13:54:42;24.50;;;16.60;;
4839;SDS011;2434;48.486;7.964;2024-03-08T13:57:10;26.40;;;16.70;;
4839;SDS011;2434;48.486;7.964;2024-03-08T13:59:38;29.27;;;16.30;;
4839;SDS011;2434;48.486;7.964;2024-03-08T14:02:06;24.87;;;16.07;;
4839;SDS011;2434;48.486;7.964;2024-03-08T14:04:39;25.60;;;17.77;;
4839;SDS011;2434;48.486;7.964;2024-03-08T14:07:08;24.10;;;16.37;;
4839;SDS011;2434;48.486;7.964;2024-03-08T14:09:38;28.80;;;17.50;;
4839;SDS011;2434;48.486;7.964;2024-03-08T14:12:09;24.47;;;16.93;;
4839;SDS011;2434;48.486;7.964;2024-03-08T14:14:37;28.83;;;18.07;;
4839;SDS011;2434;48.486;7.964;2024-03-08T14:17:05;32.07;;;18.50;;
4839;SDS011;2434;48.486;7.964;2024-03-08T14:19:33;23.50;;;16.00;;
4839;SDS011;2434;48.486;7.964;2024-03-08T14:22:02;21.37;;;15.43;;
4839;SDS011;2434;48.486;7.964;2024-03-08T14:24:31;23.87;;;15.87;;
4839;SDS011;2434;48.486;7.964;2024-03-08T14:27:03;30.10;;;16.30;;
4839;SDS011;2434;48.486;7.964;2024-03-08T14:29:34;20.37;;;15.07;;
4839;SDS011;2434;48.486;7.964;2024-03-08T14:32:03;23.57;;;14.57;;
4839;SDS011;2434;48.486;7.964;2024-03-08T14:34:32;22.70;;;15.47;;
4839;SDS011;2434;48.486;7.964;2024-03-08T14:37:01;24.27;;;16.10;;
4839;SDS011;2434;48.486;7.964;2024-03-08T14:39:32;23.13;;;15.00;;
4839;SDS011;2434;48.486;7.964;2024-03-08T14:42:02;22.93;;;16.50;;
4839;SDS011;2434;48.486;7.964;2024-03-08T14:44:32;23.73;;;15.77;;
4839;SDS011;2434;48.486;7.964;2024-03-08T14:47:00;22.10;;;14.50;;
4839;SDS011;2434;48.486;7.964;2024-03-08T14:49:32;25.17;;;15.83;;
4839;SDS011;2434;48.486;7.964;2024-03-08T14:52:03;23.77;;;15.83;;
4839;SDS011;2434;48.486;7.964;2024-03-08T14:54:51;19.97;;;14.50;;
4839;SDS011;2434;48.486;7.964;2024-03-08T14:57:21;26.00;;;16.10;;
4839;SDS011;2434;48.486;7.964;2024-03-08T14:59:49;25.23;;;13.73;;
4839;SDS011;2434;48.486;7.964;2024-03-08T15:02:17;20.43;;;13.80;;